Time;durP1;ratioP1;P1;durP2;ratioP2;P2;SDS_P1;SDS_P2;PMS_P1;PMS_P2;Temp;Humidity;BMP_temperature;BMP_pressure;BME280_temperature;BME280_humidity;BME280_pressure;Samples;Min_cycle;Max_cycle;Signal;HPM_P1;HPM_P2
2021/01/17 00:01:51;;;;;;;16.83;6.70;;;;;;;1.80;71.61;100588.72;8512707;33;20218;-72
2021/01/17 00:06:55;;;;;;;12.67;6.47;;;;;;;1.66;71.76;100583.81;8550027;33;20483;-72
2021/01/17 00:11:57;;;;;;;13.20;6.97;;;;;;;1.55;72.36;100573.56;8573485;33;20407;-72
2021/01/17 00:17:00;;;;;;;18.17;7.30;;;;;;;1.52;72.61;100572.78;8530265;33;20208;-72
2021/01/17 00:22:07;;;;;;;12.93;6.63;;;;;;;1.46;73.05;100573.81;8515597;33;20721;-72
2021/01/17 00:27:12;;;;;;;15.10;7.73;;;;;;;1.44;72.93;100572.13;8533112;33;20147;-72
2021/01/17 00:32:14;;;;;;;12.37;7.00;;;;;;;1.46;73.32;100562.44;8536220;33;20191;-72
2021/01/17 00:37:19;;;;;;;18.53;8.43;;;;;;;1.46;72.95;100562.44;8538545;33;21229;-72
2021/01/17 00:42:30;;;;;;;14.13;7.93;;;;;;;1.49;73.11;100557.06;8542728;33;20435;-72
2021/01/17 00:47:32;;;;;;;17.40;8.23;;;;;;;1.49;73.14;100546.53;8540364;33;20510;-72
2021/01/17 00:52:36;;;;;;;17.03;8.33;;;;;;;1.55;72.97;100552.50;8537821;33;21005;-72
2021/01/17 00:57:39;;;;;;;15.77;7.70;;;;;;;1.50;73.50;100540.38;8537345;33;20438;-72
2021/01/17 01:02:44;;;;;;;19.30;8.83;;;;;;;1.56;73.58;100534.91;8534036;33;20300;-71
2021/01/17 01:07:48;;;;;;;17.87;7.77;;;;;;;1.58;72.99;100533.13;8536018;33;20966;-71
2021/01/17 01:12:54;;;;;;;21.03;8.33;;;;;;;1.54;73.18;100532.34;8536155;33;20144;-72
2021/01/17 01:17:56;;;;;;;20.57;8.90;;;;;;;1.52;73.21;100526.25;8538989;33;20148;-72
2021/01/17 01:23:00;;;;;;;19.47;8.57;;;;;;;1.49;73.45;100515.81;8543050;33;20417;-72
2021/01/17 01:28:02;;;;;;;16.10;8.10;;;;;;;1.47;73.43;100507.06;8547213;33;21294;-71
2021/01/17 01:33:05;;;;;;;19.10;8.47;;;;;;;1.44;73.37;100503.69;8541822;33;20198;-72
2021/01/17 01:38:10;;;;;;;16.87;8.27;;;;;;;1.48;73.35;100493.03;8541256;33;20140;-72
2021/01/17 01:43:12;;;;;;;20.30;8.97;;;;;;;1.53;73.64;100490.25;8539974;33;20430;-72
2021/01/17 01:48:15;;;;;;;19.00;8.13;;;;;;;1.53;73.13;100491.09;8540245;33;20140;-71
2021/01/17 01:53:18;;;;;;;19.13;8.30;;;;;;;1.59;73.12;100487.47;8539695;33;20421;-71
2021/01/17 01:58:23;;;;;;;17.93;8.10;;;;;;;1.64;72.93;100482.03;8539024;33;20247;-72
2021/01/17 02:03:26;;;;;;;20.47;10.07;;;;;;;1.65;73.07;100475.88;8539276;33;21148;-72
2021/01/17 02:09:01;;;;;;;24.03;10.23;;;;;;;1.68;72.44;100474.03;8539711;33;20430;-72
2021/01/17 02:14:22;;;;;;;23.93;9.33;;;;;;;1.66;72.65;100470.56;8539856;33;20282;-72
2021/01/17 02:19:29;;;;;;;22.67;10.13;;;;;;;1.75;72.53;100465.00;8543218;33;20707;-71
2021/01/17 02:24:48;;;;;;;18.50;8.27;;;;;;;1.68;72.26;100462.63;8540276;33;20464;-72
2021/01/17 02:29:52;;;;;;;22.03;9.47;;;;;;;1.70;72.81;100450.25;8535567;33;21834;-72
2021/01/17 02:34:55;;;;;;;18.90;8.10;;;;;;;1.72;72.47;100462.47;8540278;33;20421;-72
2021/01/17 02:40:05;;;;;;;22.50;8.50;;;;;;;1.78;72.59;100464.06;8538879;33;21078;-72
2021/01/17 02:45:09;;;;;;;21.60;10.47;;;;;;;1.73;72.62;100461.59;8541234;33;20408;-73
2021/01/17 02:50:12;;;;;;;22.85;10.60;;;;;;;1.67;72.66;100466.16;8540196;33;21003;-72
2021/01/17 02:55:16;;;;;;;25.93;10.27;;;;;;;1.61;72.80;100463.69;8537135;33;20140;-72
2021/01/17 03:00:23;;;;;;;23.73;10.47;;;;;;;1.64;73.55;100456.56;8535997;33;20950;-72
2021/01/17 03:05:26;;;;;;;20.00;9.30;;;;;;;1.62;73.36;100463.66;8538421;33;20145;-72
2021/01/17 03:10:30;;;;;;;25.23;9.30;;;;;;;1.61;73.42;100459.28;8536545;33;20411;-72
2021/01/17 03:15:35;;;;;;;21.60;10.30;;;;;;;1.63;73.62;100459.25;8534864;33;21852;-72
2021/01/17 03:20:37;;;;;;;22.43;9.30;;;;;;;1.61;73.66;100461.91;8535586;33;20431;-72
2021/01/17 03:25:40;;;;;;;19.50;9.60;;;;;;;1.62;73.79;100463.66;8536234;33;20242;-72
2021/01/17 03:30:43;;;;;;;28.07;10.40;;;;;;;1.56;73.75;100461.19;8529855;33;20968;-72
2021/01/17 03:35:46;;;;;;;30.33;10.40;;;;;;;1.59;73.98;100471.66;8521618;33;20441;-72
2021/01/17 03:40:49;;;;;;;25.17;11.10;;;;;;;1.52;73.93;100464.84;8528954;33;20187;-72
2021/01/17 03:45:52;;;;;;;17.67;9.20;;;;;;;1.59;74.10;100462.88;8530061;33;20522;-72
2021/01/17 03:50:54;;;;;;;27.87;11.80;;;;;;;1.64;74.32;100460.97;8532432;33;20461;-72
2021/01/17 03:55:57;;;;;;;28.83;11.80;;;;;;;1.62;73.88;100458.41;8536800;33;20262;-72
2021/01/17 04:00:59;;;;;;;23.40;11.17;;;;;;;1.65;74.04;100457.44;8537101;33;20179;-72
2021/01/17 04:06:02;;;;;;;26.33;12.40;;;;;;;1.65;74.34;100466.22;8536900;33;21244;-72
2021/01/17 04:11:05;;;;;;;26.37;11.83;;;;;;;1.63;74.42;100461.88;8537250;33;20137;-72
2021/01/17 04:16:08;;;;;;;29.07;11.40;;;;;;;1.66;74.24;100464.44;8538221;33;22088;-71
2021/01/17 04:21:11;;;;;;;32.90;13.80;;;;;;;1.63;74.24;100457.47;8542476;33;21105;-71
2021/01/17 04:26:17;;;;;;;27.00;11.67;;;;;;;1.53;74.16;100458.66;8538938;33;20556;-71
2021/01/17 04:31:20;;;;;;;27.77;12.70;;;;;;;1.53;74.24;100450.75;8542992;33;22051;-72
2021/01/17 04:36:22;;;;;;;31.27;12.37;;;;;;;1.46;74.11;100454.47;8542056;33;20663;-70
2021/01/17 04:41:28;;;;;;;27.50;12.17;;;;;;;1.52;74.17;100449.03;8542616;33;20456;-71
2021/01/17 04:46:32;;;;;;;33.63;14.07;;;;;;;1.53;73.92;100464.75;8542478;33;20180;-71
2021/01/17 04:51:36;;;;;;;27.13;11.73;;;;;;;1.58;74.11;100467.28;8542996;33;20183;-73
2021/01/17 04:56:49;;;;;;;30.47;11.93;;;;;;;1.63;74.33;100464.53;8543698;33;20179;-72
2021/01/17 05:02:00;;;;;;;28.93;12.23;;;;;;;1.64;73.96;100464.47;8552221;33;20477;-72
2021/01/17 05:07:17;;;;;;;33.40;13.50;;;;;;;1.50;73.79;100459.59;8581179;33;20410;-70
2021/01/17 05:12:28;;;;;;;32.77;13.00;;;;;;;1.55;73.53;100452.44;8544010;33;20179;-71
2021/01/17 05:17:39;;;;;;;32.03;12.53;;;;;;;1.50;73.32;100446.44;8545219;33;20433;-71
2021/01/17 05:22:44;;;;;;;33.57;13.67;;;;;;;1.46;73.46;100460.59;8547728;33;20404;-71
2021/01/17 05:27:50;;;;;;;31.70;12.07;;;;;;;1.44;73.37;100459.78;8555101;33;20428;-71
2021/01/17 05:32:54;;;;;;;26.73;12.03;;;;;;;1.51;73.66;100469.25;8547103;33;21037;-71
2021/01/17 05:37:57;;;;;;;29.47;12.47;;;;;;;1.57;73.83;100462.94;8538900;33;20444;-71
2021/01/17 05:43:00;;;;;;;28.57;12.93;;;;;;;1.63;73.45;100475.91;8538728;33;21568;-71
2021/01/17 05:48:05;;;;;;;27.07;12.57;;;;;;;1.60;73.52;100462.84;8540152;33;20179;-72
2021/01/17 05:53:08;;;;;;;35.53;14.20;;;;;;;1.51;73.61;100473.66;8540997;33;20486;-73
2021/01/17 05:58:25;;;;;;;31.30;12.43;;;;;;;1.55;73.84;100480.53;8544275;33;21010;-73
2021/01/17 06:03:30;;;;;;;33.47;13.23;;;;;;;1.47;73.96;100486.00;8545461;33;21040;-71
2021/01/17 06:08:34;;;;;;;37.33;15.07;;;;;;;1.43;73.79;100484.38;8550513;33;20519;-71
2021/01/17 06:13:40;;;;;;;35.23;12.83;;;;;;;1.38;73.99;100486.28;8554653;33;20881;-74
2021/01/17 06:18:53;;;;;;;29.73;12.73;;;;;;;1.42;74.13;100493.16;8545866;33;20458;-72
2021/01/17 06:23:58;;;;;;;34.17;12.93;;;;;;;1.31;74.36;100495.22;8547837;33;20562;-71
2021/01/17 06:29:04;;;;;;;36.40;13.10;;;;;;;1.39;74.28;100489.78;8560078;33;20255;-71
2021/01/17 06:34:11;;;;;;;39.37;13.60;;;;;;;1.40;74.45;100488.84;8557627;33;21111;-72
2021/01/17 06:39:20;;;;;;;34.83;13.23;;;;;;;1.37;74.52;100492.44;8560019;33;20180;-72
2021/01/17 06:44:29;;;;;;;36.43;15.47;;;;;;;1.41;74.41;100493.22;8548926;33;20621;-71
2021/01/17 06:49:33;;;;;;;40.03;15.90;;;;;;;1.45;74.91;100493.09;8545837;33;20436;-71
2021/01/17 06:54:38;;;;;;;35.60;14.40;;;;;;;1.48;74.64;100502.66;8565975;33;20726;-71
2021/01/17 06:59:43;;;;;;;33.47;13.73;;;;;;;1.49;74.34;100505.28;8545742;33;20418;-71
2021/01/17 07:05:07;;;;;;;38.07;14.87;;;;;;;1.46;74.34;100510.63;8543382;33;20417;-70
2021/01/17 07:10:11;;;;;;;40.20;14.80;;;;;;;1.49;74.26;100507.03;8502970;33;20156;-70
2021/01/17 07:15:25;;;;;;;34.27;15.53;;;;;;;1.49;73.98;100512.31;8503096;33;21058;-70
2021/01/17 07:20:30;;;;;;;39.93;16.43;;;;;;;1.48;74.30;100510.56;8501616;33;20500;-71
2021/01/17 07:25:38;;;;;;;41.43;16.13;;;;;;;1.45;74.54;100523.81;8500020;33;20449;-71
2021/01/17 07:30:49;;;;;;;37.50;16.47;;;;;;;1.48;74.65;100532.53;8510479;33;20448;-71
2021/01/17 07:35:56;;;;;;;32.53;15.60;;;;;;;1.55;74.79;100536.69;8500446;33;20191;-71
2021/01/17 07:41:01;;;;;;;38.17;15.43;;;;;;;1.62;74.54;100541.78;8502159;33;20507;-71
2021/01/17 07:46:08;;;;;;;43.37;18.87;;;;;;;1.63;74.55;100554.06;8503545;33;20940;-71
2021/01/17 07:51:12;;;;;;;48.43;16.70;;;;;;;1.66;74.94;100556.63;8505025;33;20144;-71
2021/01/17 07:56:17;;;;;;;38.23;16.70;;;;;;;1.61;75.08;100562.00;8505618;33;20170;-71
2021/01/17 08:01:47;;;;;;;47.23;17.90;;;;;;;1.66;74.82;100568.00;8505002;33;20425;-71
2021/01/17 08:06:51;;;;;;;54.73;19.53;;;;;;;1.76;75.13;100569.50;8495615;33;20180;-71
2021/01/17 08:12:00;;;;;;;44.57;17.73;;;;;;;1.86;74.92;100577.13;8509103;33;20410;-71
2021/01/17 08:17:12;;;;;;;55.40;20.57;;;;;;;1.75;74.90;100590.59;8499260;33;20292;-71
2021/01/17 08:22:45;;;;;;;49.80;17.83;;;;;;;1.80;75.17;100587.84;8570856;33;20180;-71
2021/01/17 08:27:50;;;;;;;41.70;14.53;;;;;;;2.08;75.94;100593.19;8571895;33;20152;-70
2021/01/17 08:32:55;;;;;;;95.50;28.67;;;;;;;2.45;75.17;100595.63;8574060;33;20191;-71
2021/01/17 08:38:15;;;;;;;71.37;26.03;;;;;;;2.63;73.76;100600.38;8558036;33;20223;-71
2021/01/17 08:43:19;;;;;;;51.87;21.50;;;;;;;2.73;73.49;100595.66;8546738;33;20816;-71
2021/01/17 08:48:29;;;;;;;37.13;17.27;;;;;;;3.01;73.55;100595.63;8565441;33;20710;-71
2021/01/17 08:53:33;;;;;;;37.60;17.00;;;;;;;3.33;72.30;100604.28;8566006;33;20412;-71
2021/01/17 08:58:48;;;;;;;36.87;16.20;;;;;;;3.42;72.01;100598.69;8567766;33;20704;-71
2021/01/17 09:04:06;;;;;;;39.07;17.87;;;;;;;3.19;71.61;100595.97;8563529;33;20191;-71
2021/01/17 09:09:14;;;;;;;45.47;22.00;;;;;;;2.80;72.24;100591.06;8546756;33;20452;-71
2021/01/17 09:14:29;;;;;;;43.30;20.33;;;;;;;2.80;73.77;100596.34;8531444;33;20184;-71
2021/01/17 09:19:34;;;;;;;46.80;20.90;;;;;;;2.92;73.90;100603.84;8524379;33;20441;-71
2021/01/17 09:24:38;;;;;;;44.37;19.03;;;;;;;2.85;74.27;100611.13;8506273;33;20698;-71
2021/01/17 09:29:43;;;;;;;38.70;16.63;;;;;;;2.82;74.08;100628.78;8508368;33;20443;-71
2021/01/17 09:34:49;;;;;;;65.17;26.43;;;;;;;2.90;74.34;100625.00;8500098;33;20425;-71
2021/01/17 09:39:52;;;;;;;42.17;17.43;;;;;;;3.02;74.90;100630.84;8532376;33;20145;-71
2021/01/17 09:44:57;;;;;;;44.03;18.93;;;;;;;3.24;74.99;100636.28;8528978;33;20481;-72
2021/01/17 09:50:09;;;;;;;47.63;19.53;;;;;;;3.43;75.32;100655.91;8541819;33;20725;-71
2021/01/17 09:55:14;;;;;;;48.37;19.80;;;;;;;3.57;74.99;100655.44;8571325;33;20816;-71
2021/01/17 10:00:20;;;;;;;44.60;18.20;;;;;;;3.54;75.24;100656.41;8549603;33;20461;-70
2021/01/17 10:05:27;;;;;;;50.13;21.63;;;;;;;3.73;75.56;100658.41;8552958;33;20218;-70
2021/01/17 10:10:30;;;;;;;43.20;18.20;;;;;;;3.65;74.34;100668.38;8560831;33;20674;-71
2021/01/17 10:15:32;;;;;;;46.87;18.97;;;;;;;3.76;75.91;100671.53;8562762;33;20408;-70
2021/01/17 10:20:38;;;;;;;51.87;20.57;;;;;;;3.74;75.33;100670.72;8558750;33;20242;-70
2021/01/17 10:25:45;;;;;;;44.20;19.40;;;;;;;3.68;75.21;100668.28;8556305;33;20188;-72
2021/01/17 10:30:48;;;;;;;43.47;20.03;;;;;;;3.74;75.25;100668.06;8533389;33;20438;-72
2021/01/17 10:35:52;;;;;;;44.13;19.43;;;;;;;3.61;74.77;100661.47;8529601;33;20195;-72
2021/01/17 10:40:54;;;;;;;41.97;18.67;;;;;;;3.69;75.92;100662.94;8503877;33;20430;-72
2021/01/17 10:46:07;;;;;;;38.20;17.03;;;;;;;3.56;75.07;100665.16;8493112;33;20141;-71
2021/01/17 10:51:23;;;;;;;42.37;17.23;;;;;;;3.60;74.90;100660.63;8486809;33;20477;-71
2021/01/17 10:56:38;;;;;;;38.20;18.37;;;;;;;3.53;74.83;100667.88;8484543;33;21570;-70
2021/01/17 11:01:46;;;;;;;44.13;19.83;;;;;;;3.60;75.78;100670.31;8481910;33;20611;-71
2021/01/17 11:06:58;;;;;;;39.93;18.40;;;;;;;3.82;76.33;100675.75;8481029;33;20188;-72
2021/01/17 11:12:01;;;;;;;44.53;18.40;;;;;;;3.83;75.38;100675.69;8482622;33;20222;-71
2021/01/17 11:17:03;;;;;;;50.03;23.83;;;;;;;3.91;76.26;100684.22;8483253;33;20441;-71
2021/01/17 11:22:07;;;;;;;35.10;16.90;;;;;;;3.89;75.72;100678.09;8480977;33;20501;-71
2021/01/17 11:27:13;;;;;;;41.80;20.40;;;;;;;4.02;75.66;100662.69;8478884;33;20444;-71
2021/01/17 11:32:15;;;;;;;44.40;18.40;;;;;;;4.09;76.02;100666.00;8479947;33;20418;-71
2021/01/17 11:37:18;;;;;;;39.17;16.63;;;;;;;3.92;74.71;100667.44;8478329;33;20215;-72
2021/01/17 11:42:21;;;;;;;36.63;16.10;;;;;;;3.89;74.75;100675.47;8480064;33;20479;-72
2021/01/17 11:47:24;;;;;;;36.90;15.77;;;;;;;4.05;74.82;100673.16;8499131;33;20355;-72
2021/01/17 11:52:28;;;;;;;39.77;18.53;;;;;;;4.29;76.07;100667.91;8507072;33;20425;-72
2021/01/17 11:57:30;;;;;;;39.20;17.60;;;;;;;4.47;75.52;100669.91;8532650;33;20504;-72
2021/01/17 12:02:40;;;;;;;42.17;18.73;;;;;;;4.38;74.74;100660.50;8526357;33;20152;-72
2021/01/17 12:08:01;;;;;;;43.13;18.70;;;;;;;4.20;74.42;100663.81;8504959;33;20207;-72
2021/01/17 12:13:04;;;;;;;37.50;17.95;;;;;;;4.10;75.50;100658.00;8502847;33;21750;-72
2021/01/17 12:18:09;;;;;;;46.33;18.10;;;;;;;4.23;74.12;100655.78;8497947;33;20326;-72
2021/01/17 12:23:13;;;;;;;40.57;18.27;;;;;;;4.38;75.57;100659.63;8480734;33;20565;-72
2021/01/17 12:28:15;;;;;;;40.27;18.30;;;;;;;4.35;75.54;100655.31;8470880;33;20408;-72
2021/01/17 12:33:32;;;;;;;43.23;18.30;;;;;;;4.26;74.82;100658.31;8488346;33;20328;-72
2021/01/17 12:38:36;;;;;;;37.63;17.00;;;;;;;4.13;74.72;100659.66;8503132;33;20167;-72
2021/01/17 12:43:40;;;;;;;42.20;18.53;;;;;;;4.17;75.25;100654.22;8503574;33;22652;-72
2021/01/17 12:48:43;;;;;;;40.60;16.83;;;;;;;3.92;74.45;100651.59;8535769;33;21939;-72
2021/01/17 12:53:48;;;;;;;40.43;18.40;;;;;;;3.92;75.57;100648.06;8537719;33;20654;-72
2021/01/17 12:58:51;;;;;;;33.47;16.63;;;;;;;3.81;75.76;100648.44;8534254;33;20190;-72
2021/01/17 13:03:53;;;;;;;47.13;18.87;;;;;;;3.89;76.02;100650.81;8525755;33;20231;-72
2021/01/17 13:08:57;;;;;;;42.23;18.10;;;;;;;3.78;75.70;100653.81;8477892;33;20667;-72
2021/01/17 13:14:00;;;;;;;40.93;19.40;;;;;;;3.86;75.74;100657.06;8483074;33;20423;-73
2021/01/17 13:19:02;;;;;;;42.27;19.17;;;;;;;3.85;76.38;100667.72;8484385;33;20514;-73
2021/01/17 13:24:07;;;;;;;47.05;20.85;;;;;;;3.74;75.99;100679.50;8484105;33;20180;-72
2021/01/17 13:29:09;;;;;;;41.20;19.97;;;;;;;3.70;77.36;100677.00;8482534;33;22001;-71
2021/01/17 13:34:11;;;;;;;44.17;18.17;;;;;;;3.68;77.11;100684.16;8481107;33;20299;-71
2021/01/17 13:39:14;;;;;;;42.50;17.23;;;;;;;3.71;77.53;100679.63;8481615;33;20547;-71
2021/01/17 13:44:18;;;;;;;41.57;16.93;;;;;;;3.67;77.16;100682.41;8476652;33;20449;-72
2021/01/17 13:49:21;;;;;;;40.77;17.47;;;;;;;3.64;77.11;100691.28;8487927;33;21495;-72
2021/01/17 13:54:24;;;;;;;33.67;15.30;;;;;;;3.43;75.95;100687.59;8521127;33;20677;-73
2021/01/17 13:59:27;;;;;;;35.47;14.90;;;;;;;3.42;76.65;100696.41;8525842;33;20675;-73
2021/01/17 14:04:29;;;;;;;34.50;15.00;;;;;;;3.48;77.17;100701.53;8529015;33;20450;-72
2021/01/17 14:09:32;;;;;;;35.87;14.80;;;;;;;3.53;77.78;100704.84;8509004;33;21170;-72
2021/01/17 14:14:35;;;;;;;32.33;14.67;;;;;;;3.52;77.38;100715.50;8502770;33;20176;-72
2021/01/17 14:19:38;;;;;;;32.00;14.43;;;;;;;3.44;77.54;100715.72;8498857;33;20148;-72
2021/01/17 14:24:41;;;;;;;39.43;17.13;;;;;;;3.36;78.12;100724.81;8502182;33;20269;-72
2021/01/17 14:29:44;;;;;;;37.20;16.17;;;;;;;3.33;78.16;100728.41;8503526;33;20423;-72
2021/01/17 14:34:46;;;;;;;37.17;15.83;;;;;;;3.25;78.69;100731.28;8504210;33;20760;-72
2021/01/17 14:39:49;;;;;;;37.43;15.60;;;;;;;3.10;78.57;100730.00;8504967;33;21517;-71
2021/01/17 14:44:52;;;;;;;43.57;18.53;;;;;;;3.08;78.83;100745.00;8520940;33;20623;-72
2021/01/17 14:49:54;;;;;;;31.03;13.60;;;;;;;2.99;79.47;100747.03;8491215;33;20514;-71
2021/01/17 14:54:57;;;;;;;36.43;16.53;;;;;;;3.00;79.52;100746.16;8490571;33;20187;-72
2021/01/17 15:00:00;;;;;;;39.80;16.20;;;;;;;3.00;80.15;100754.94;8502281;33;20446;-72
2021/01/17 15:05:03;;;;;;;39.87;17.20;;;;;;;2.98;80.18;100754.09;8508863;33;20133;-72
2021/01/17 15:10:08;;;;;;;35.90;16.67;;;;;;;2.98;80.07;100751.47;8501339;33;20446;-71
2021/01/17 15:15:12;;;;;;;38.93;16.40;;;;;;;3.01;80.63;100759.28;8525733;33;20153;-71
2021/01/17 15:20:15;;;;;;;47.30;17.77;;;;;;;3.02;80.52;100752.25;8499715;33;21020;-72
2021/01/17 15:25:18;;;;;;;38.43;16.83;;;;;;;3.00;80.57;100765.50;8526275;33;20453;-72
2021/01/17 15:30:28;;;;;;;43.70;18.17;;;;;;;2.99;80.75;100762.88;8477919;33;20194;-72
2021/01/17 15:35:31;;;;;;;40.00;19.27;;;;;;;3.01;80.80;100777.78;8525716;33;20424;-72
2021/01/17 15:40:35;;;;;;;47.37;20.23;;;;;;;3.07;81.15;100780.25;8528882;33;20164;-72
2021/01/17 15:45:38;;;;;;;42.63;16.00;;;;;;;3.08;81.21;100783.75;8517887;33;20413;-73
2021/01/17 15:50:40;;;;;;;44.77;18.53;;;;;;;2.96;81.09;100784.09;8517837;33;20184;-73
2021/01/17 15:55:43;;;;;;;45.30;19.27;;;;;;;2.92;81.18;100788.59;8506154;33;20183;-73
2021/01/17 16:00:46;;;;;;;42.43;18.40;;;;;;;3.00;81.18;100802.44;8489909;33;20612;-73
2021/01/17 16:05:56;;;;;;;39.13;17.13;;;;;;;2.96;81.16;100798.16;8504624;33;20503;-72
2021/01/17 16:11:00;;;;;;;43.87;18.37;;;;;;;3.00;81.36;100812.16;8531130;33;20511;-73
2021/01/17 16:16:03;;;;;;;40.13;18.00;;;;;;;3.00;81.37;100815.66;8522048;33;20133;-73
2021/01/17 16:21:05;;;;;;;44.90;18.93;;;;;;;3.04;81.49;100808.50;8526342;33;20428;-73
2021/01/17 16:26:08;;;;;;;36.30;17.70;;;;;;;3.09;81.55;100815.38;8504257;33;20184;-73
2021/01/17 16:31:11;;;;;;;43.30;18.53;;;;;;;3.12;81.64;100819.69;8519903;33;20472;-74
2021/01/17 16:36:20;;;;;;;41.47;18.53;;;;;;;3.09;81.83;100818.00;8510388;33;20209;-73
2021/01/17 16:41:23;;;;;;;45.63;18.10;;;;;;;3.17;81.89;100822.22;8517304;33;20486;-73
2021/01/17 16:46:29;;;;;;;42.77;17.27;;;;;;;3.19;81.66;100825.69;8546315;33;20690;-73
2021/01/17 16:51:33;;;;;;;46.13;19.77;;;;;;;3.14;81.87;100827.59;8534584;33;20128;-73
2021/01/17 16:56:38;;;;;;;47.40;18.23;;;;;;;3.18;81.41;100834.50;8521788;33;20465;-72
2021/01/17 17:01:42;;;;;;;41.97;16.63;;;;;;;3.19;81.48;100833.59;8526102;33;20416;-73
2021/01/17 17:06:44;;;;;;;42.87;18.10;;;;;;;3.23;81.87;100836.09;8517289;33;20183;-73
2021/01/17 17:11:48;;;;;;;35.07;14.43;;;;;;;3.21;81.72;100832.66;8528600;33;20402;-74
2021/01/17 17:16:51;;;;;;;37.83;15.30;;;;;;;3.20;81.59;100844.09;8571640;33;20899;-72
2021/01/17 17:21:54;;;;;;;40.20;17.60;;;;;;;3.20;81.56;100832.69;8567906;33;20206;-72
2021/01/17 17:26:57;;;;;;;36.40;15.97;;;;;;;3.18;82.00;100842.41;8573459;33;20421;-72
2021/01/17 17:31:59;;;;;;;39.47;17.47;;;;;;;3.25;82.12;100849.25;8572588;33;20155;-71
2021/01/17 17:37:03;;;;;;;40.43;18.00;;;;;;;3.32;81.82;100841.13;8559434;33;20424;-70
2021/01/17 17:42:07;;;;;;;47.10;18.97;;;;;;;3.36;82.20;100841.88;8578325;33;20222;-73
2021/01/17 17:47:09;;;;;;;55.97;21.97;;;;;;;3.34;81.97;100852.47;8573845;33;20149;-75
2021/01/17 17:52:12;;;;;;;47.43;19.10;;;;;;;3.34;82.33;100849.84;8534178;33;20469;-74
2021/01/17 17:57:18;;;;;;;42.37;19.30;;;;;;;3.34;82.28;100856.91;8506292;33;20165;-74
2021/01/17 18:02:21;;;;;;;44.90;19.43;;;;;;;3.30;81.85;100850.84;8508037;33;20451;-74
2021/01/17 18:07:23;;;;;;;40.50;18.43;;;;;;;3.26;82.30;100862.44;8505006;33;20191;-73
2021/01/17 18:12:27;;;;;;;47.83;20.03;;;;;;;3.34;82.06;100859.53;8510143;33;21058;-73
2021/01/17 18:17:30;;;;;;;50.00;21.37;;;;;;;3.36;82.10;100848.94;8516393;33;20433;-74
2021/01/17 18:22:33;;;;;;;45.77;19.73;;;;;;;3.40;82.09;100863.78;8492639;33;20155;-74
2021/01/17 18:27:38;;;;;;;41.97;16.80;;;;;;;3.34;81.95;100870.13;8505090;33;20894;-73
2021/01/17 18:32:42;;;;;;;43.03;17.53;;;;;;;3.34;81.99;100875.41;8511239;33;20184;-75
2021/01/17 18:37:47;;;;;;;43.60;16.97;;;;;;;3.39;81.97;100883.19;8517815;33;20244;-73
2021/01/17 18:42:54;;;;;;;34.07;16.67;;;;;;;3.45;82.05;100883.88;8518185;33;20837;-73
2021/01/17 18:48:06;;;;;;;38.63;15.60;;;;;;;3.44;82.07;100868.94;8496343;33;20702;-73
2021/01/17 18:53:08;;;;;;;35.43;15.17;;;;;;;3.48;81.80;100860.03;8489630;33;20420;-73
2021/01/17 18:58:11;;;;;;;38.77;15.87;;;;;;;3.52;82.05;100860.78;8488708;33;20484;-75
2021/01/17 19:03:13;;;;;;;30.20;13.97;;;;;;;3.56;81.97;100865.06;8491876;33;21904;-73
2021/01/17 19:08:16;;;;;;;41.00;15.20;;;;;;;3.55;82.08;100869.47;8489611;33;20433;-74
2021/01/17 19:13:19;;;;;;;33.83;14.20;;;;;;;3.60;81.87;100868.50;8493036;33;20607;-74
2021/01/17 19:18:22;;;;;;;37.03;14.13;;;;;;;3.62;81.78;100878.09;8510502;33;20419;-73
2021/01/17 19:23:25;;;;;;;35.87;16.67;;;;;;;3.63;81.85;100889.53;8555127;33;20524;-74
2021/01/17 19:28:28;;;;;;;58.27;25.20;;;;;;;3.63;82.33;100897.47;8561345;33;20208;-74
2021/01/17 19:33:31;;;;;;;54.07;23.37;;;;;;;3.72;82.01;100898.03;8549426;33;20215;-74
2021/01/17 19:38:34;;;;;;;38.80;18.70;;;;;;;3.73;82.42;100891.84;8566782;33;20413;-73
2021/01/17 19:43:37;;;;;;;34.80;15.60;;;;;;;3.66;82.42;100897.38;8563383;33;20226;-73
2021/01/17 19:48:40;;;;;;;55.70;26.63;;;;;;;3.68;83.03;100883.19;8559948;33;20203;-73
2021/01/17 19:53:42;;;;;;;45.67;18.57;;;;;;;3.78;82.35;100886.41;8556267;33;20228;-74
2021/01/17 19:58:46;;;;;;;41.57;17.00;;;;;;;3.81;82.58;100886.31;8546599;33;21082;-72
2021/01/17 20:03:48;;;;;;;39.83;17.07;;;;;;;3.85;82.57;100881.81;8553256;33;20428;-73
2021/01/17 20:08:51;;;;;;;57.77;21.67;;;;;;;3.83;82.58;100892.44;8551153;33;20136;-74
2021/01/17 20:13:55;;;;;;;46.43;18.90;;;;;;;3.94;82.73;100886.81;8545519;33;20206;-73
2021/01/17 20:18:58;;;;;;;45.33;18.47;;;;;;;3.99;82.55;100884.88;8502202;33;20210;-74
2021/01/17 20:24:01;;;;;;;48.53;22.03;;;;;;;4.08;82.36;100892.50;8494611;33;20466;-72
2021/01/17 20:29:07;;;;;;;43.13;18.73;;;;;;;4.15;82.26;100903.78;8495939;33;20524;-73
2021/01/17 20:34:09;;;;;;;40.53;18.73;;;;;;;4.18;82.17;100904.53;8496813;33;20419;-72
2021/01/17 20:39:14;;;;;;;50.43;23.57;;;;;;;4.27;81.82;100911.31;8499520;33;20302;-74
2021/01/17 20:44:17;;;;;;;47.07;16.77;;;;;;;4.32;82.07;100911.16;8493171;33;20228;-73
2021/01/17 20:49:20;;;;;;;42.10;14.37;;;;;;;4.32;82.01;100906.72;8515700;33;20167;-73
2021/01/17 20:54:22;;;;;;;40.43;16.07;;;;;;;4.32;82.00;100909.38;8521225;33;20938;-74
2021/01/17 20:59:26;;;;;;;42.80;16.95;;;;;;;4.23;82.50;100907.91;8541319;33;20407;-74
2021/01/17 21:04:28;;;;;;;38.67;15.50;;;;;;;4.16;82.33;100910.78;8557877;33;20193;-74
2021/01/17 21:09:31;;;;;;;34.97;14.23;;;;;;;4.23;82.38;100907.03;8555601;33;20219;-74
2021/01/17 21:14:34;;;;;;;38.50;14.07;;;;;;;4.23;82.61;100909.69;8532027;33;20493;-73
2021/01/17 21:19:36;;;;;;;40.10;15.60;;;;;;;4.21;82.92;100922.09;8488734;33;20456;-75
2021/01/17 21:24:39;;;;;;;39.57;15.23;;;;;;;4.12;83.58;100925.91;8489340;33;20950;-74
2021/01/17 21:29:42;;;;;;;41.80;16.87;;;;;;;4.09;83.81;100923.34;8515750;33;20888;-74
2021/01/17 21:35:02;;;;;;;29.90;13.13;;;;;;;4.12;83.65;100922.41;8541609;33;20412;-74
2021/01/17 21:40:07;;;;;;;36.17;13.90;;;;;;;4.30;82.90;100919.13;8543671;33;20423;-74
2021/01/17 21:45:12;;;;;;;33.37;15.10;;;;;;;4.27;83.48;100923.66;8541540;33;20441;-74
2021/01/17 21:50:15;;;;;;;34.70;13.90;;;;;;;4.35;83.08;100940.16;8542732;33;20422;-74
2021/01/17 21:55:17;;;;;;;29.57;12.50;;;;;;;4.27;83.62;100936.91;8541713;33;20891;-74
2021/01/17 22:00:25;;;;;;;29.30;13.07;;;;;;;4.36;83.66;100942.78;8507676;33;20141;-75
2021/01/17 22:05:27;;;;;;;29.80;12.80;;;;;;;4.49;83.49;100947.66;8480191;33;20161;-74
2021/01/17 22:10:30;;;;;;;31.27;12.17;;;;;;;4.44;83.24;100953.09;8466542;33;20667;-75
2021/01/17 22:15:33;;;;;;;29.33;13.43;;;;;;;4.60;83.16;100946.38;8512573;33;20202;-74
2021/01/17 22:20:36;;;;;;;30.27;12.40;;;;;;;4.58;83.16;100957.94;8526002;33;20445;-74
2021/01/17 22:25:38;;;;;;;27.87;13.27;;;;;;;4.40;83.99;100957.63;8509041;33;20258;-75
2021/01/17 22:30:42;;;;;;;31.13;12.07;;;;;;;4.27;84.50;100964.22;8538013;33;20152;-74
2021/01/17 22:35:44;;;;;;;26.40;12.80;;;;;;;4.36;84.29;100960.41;8540250;33;21233;-73
2021/01/17 22:40:46;;;;;;;24.83;12.97;;;;;;;4.40;84.50;100962.91;8536686;33;20242;-73
2021/01/17 22:45:49;;;;;;;26.60;11.17;;;;;;;4.43;84.21;100968.09;8523755;33;20617;-74
2021/01/17 22:50:52;;;;;;;30.37;13.30;;;;;;;4.55;83.83;100969.50;8535180;33;20458;-73
2021/01/17 22:55:54;;;;;;;31.53;12.83;;;;;;;4.60;84.06;100969.34;8532829;33;20132;-73
2021/01/17 23:00:57;;;;;;;26.30;11.07;;;;;;;4.64;84.28;100960.41;8533789;33;20429;-73
2021/01/17 23:06:02;;;;;;;29.03;12.00;;;;;;;4.79;83.53;100951.91;8533817;33;20238;-73
2021/01/17 23:11:05;;;;;;;32.67;12.83;;;;;;;4.81;83.73;100962.47;8533055;33;20835;-73
2021/01/17 23:16:10;;;;;;;28.90;12.43;;;;;;;4.79;84.05;100962.50;8524092;33;20144;-75
2021/01/17 23:21:15;;;;;;;27.07;11.83;;;;;;;4.76;84.27;100957.31;8519113;33;20137;-74
2021/01/17 23:26:17;;;;;;;28.37;10.17;;;;;;;4.83;83.68;100968.59;8515671;33;20699;-73